Athens, MO

11:55 AM CST on February 09, 2016 (GMT -0600)
Cedar Kahoka | | Change Station
CLOSE
Current Station
Personal Weather Station
Location: Kahoka, MO
Elevation: 705 ft
Nearby Weather Stations

Elev 705 ft 40.42 °N, 91.73 °W | Updated 13 minutes ago

Snow
Snow
14.9 °F
Feels Like 0 °F
N
14.5
Wind Variable Wind from NW

Today
High -- | Low -- °F
--% Chance of Precip.
Yesterday
High -- | Low -- °F
Precip. -- in
Pressure 30.05 in
Visibility 9.0 miles
Clouds Overcast 2300 ft
Windchill 0 °F
Dew Point 9 °F
Humidity 76%
Rainfall 0.02 in
Snow Depth Not available.
7:08 AM 5:34 PM
New Moon, 2% visible
METAR KEOK 091735Z AUTO 32020G26KT 9SM -SN OVC023 M08/M13 A3005 RMK AO2
Pressure 30.05 in
Visibility 9.0 miles
Clouds Overcast 2300 ft
Windchill 0 °F
Dew Point 9 °F
Humidity 76%
Rainfall 0.02 in
Snow Depth Not available.
7:08 AM 5:34 PM
New Moon, 2% visible
METAR KEOK 091735Z AUTO 32020G26KT 9SM -SN OVC023 M08/M13 A3005 RMK AO2

10-Day Weather Forecast

Almanac

Astronomy

Feb. 09, 2016 Rise Set
Actual Time
Civil Twilight
Nautical Twilight
Astronomical Twilight
Moon
Length of Visible Light
Length of Day
Tomorrow will be .
, % of the Moon is Illuminated

Today's Extremes

State Highs State Lows

Community

WunderPhotos

Upload Photos

1,891,650 photos uploaded!

WunderBlog® & News

Nearby

Air Quality

  Air Quality AQ Index Pollutant
Not available.

Snow Depth

Station Depth Elevation

Earthquake Activity

City Distance Mag. Time & Date
Minimum magnitude displayed is 2.5.

Coastal Water Temperatures

Place Temperature

Stations

Nearby Weather Stations

Station Location Temp. Windchill Dew Point Humidity Wind Precip. Elev Updated Type
                   

Watches & Warnings

There are currently no watches in effect.